Argyle, Florida
Current Conditions -  °F | °C
As of 5:15 AM on Saturday 22 Nov 2014 (Local Time) from K54J Reporting Station
Scattered Clouds Scattered Clouds  
Wind Chill: 43°   Ceiling: Unl
Heat Index: 47°   Visibility: 10mi
Dew Point: 39°   Wind: 10mph
Humidity: 72%   Direction: 50°NE
Pressure: 30.31"   Gusts: NA
Location:  30.72°N, 86.04°W
Report Text: K54J 221115Z AUTO 05009KT 10SM SCT049 09/04 A3031 RMK AO2 T00850038
Loading
Personal Weather Stations






























Interactive Weather Map New forecast layout! Learn more

10-Day Weather Forecast

Advertisements
Track Severe Weather on mobile